sensor_id;sensor_type;location;lat;lon;timestamp;P1;durP1;ratioP1;P2;durP2;ratioP2
13349;SDS011;6744;53.190;6.576;2023-05-23T00:02:19;21.50;;;15.70;;
13349;SDS011;6744;53.190;6.576;2023-05-23T00:04:45;19.47;;;14.33;;
13349;SDS011;6744;53.190;6.576;2023-05-23T00:07:10;24.30;;;14.67;;
13349;SDS011;6744;53.190;6.576;2023-05-23T00:09:35;20.77;;;13.73;;
13349;SDS011;6744;53.190;6.576;2023-05-23T00:12:01;19.60;;;14.10;;
13349;SDS011;6744;53.190;6.576;2023-05-23T00:14:27;18.43;;;12.37;;
13349;SDS011;6744;53.190;6.576;2023-05-23T00:16:55;21.03;;;12.93;;
13349;SDS011;6744;53.190;6.576;2023-05-23T00:19:20;24.43;;;16.40;;
13349;SDS011;6744;53.190;6.576;2023-05-23T00:21:46;19.30;;;14.23;;
13349;SDS011;6744;53.190;6.576;2023-05-23T00:24:16;16.67;;;13.00;;
13349;SDS011;6744;53.190;6.576;2023-05-23T00:26:43;19.77;;;14.07;;
13349;SDS011;6744;53.190;6.576;2023-05-23T00:29:08;15.70;;;12.07;;
13349;SDS011;6744;53.190;6.576;2023-05-23T00:31:39;17.37;;;12.70;;
13349;SDS011;6744;53.190;6.576;2023-05-23T00:34:05;16.93;;;11.93;;
13349;SDS011;6744;53.190;6.576;2023-05-23T00:36:30;16.13;;;12.13;;
13349;SDS011;6744;53.190;6.576;2023-05-23T00:39:00;16.73;;;13.40;;
13349;SDS011;6744;53.190;6.576;2023-05-23T00:41:26;16.13;;;12.73;;
13349;SDS011;6744;53.190;6.576;2023-05-23T00:43:54;22.57;;;15.13;;
13349;SDS011;6744;53.190;6.576;2023-05-23T00:46:20;15.97;;;12.53;;
13349;SDS011;6744;53.190;6.576;2023-05-23T00:48:46;19.17;;;13.80;;
13349;SDS011;6744;53.190;6.576;2023-05-23T00:51:12;14.33;;;12.60;;
13349;SDS011;6744;53.190;6.576;2023-05-23T00:53:37;17.33;;;13.73;;
13349;SDS011;6744;53.190;6.576;2023-05-23T00:56:03;17.40;;;13.57;;
13349;SDS011;6744;53.190;6.576;2023-05-23T00:58:28;14.43;;;11.80;;
13349;SDS011;6744;53.190;6.576;2023-05-23T01:00:54;15.73;;;12.47;;
13349;SDS011;6744;53.190;6.576;2023-05-23T01:03:20;17.37;;;13.60;;
13349;SDS011;6744;53.190;6.576;2023-05-23T01:05:45;10.97;;;9.40;;
13349;SDS011;6744;53.190;6.576;2023-05-23T01:08:10;15.23;;;10.80;;
13349;SDS011;6744;53.190;6.576;2023-05-23T01:10:36;14.03;;;9.97;;
13349;SDS011;6744;53.190;6.576;2023-05-23T01:16:06;12.47;;;8.27;;
13349;SDS011;6744;53.190;6.576;2023-05-23T01:21:28;11.83;;;7.57;;
13349;SDS011;6744;53.190;6.576;2023-05-23T01:29:18;8.30;;;5.83;;
13349;SDS011;6744;53.190;6.576;2023-05-23T01:31:47;12.93;;;6.53;;
13349;SDS011;6744;53.190;6.576;2023-05-23T01:34:14;13.70;;;8.73;;
13349;SDS011;6744;53.190;6.576;2023-05-23T01:36:41;13.97;;;8.03;;
13349;SDS011;6744;53.190;6.576;2023-05-23T01:39:07;14.80;;;8.37;;
13349;SDS011;6744;53.190;6.576;2023-05-23T01:41:33;10.77;;;7.27;;
13349;SDS011;6744;53.190;6.576;2023-05-23T01:43:58;13.57;;;7.77;;
13349;SDS011;6744;53.190;6.576;2023-05-23T01:46:24;13.07;;;8.87;;
13349;SDS011;6744;53.190;6.576;2023-05-23T01:48:51;15.87;;;8.87;;
13349;SDS011;6744;53.190;6.576;2023-05-23T01:51:17;17.17;;;8.30;;
13349;SDS011;6744;53.190;6.576;2023-05-23T01:53:43;14.83;;;8.13;;
13349;SDS011;6744;53.190;6.576;2023-05-23T01:56:08;18.60;;;9.53;;
13349;SDS011;6744;53.190;6.576;2023-05-23T01:58:34;15.03;;;8.50;;
13349;SDS011;6744;53.190;6.576;2023-05-23T02:00:59;16.70;;;8.83;;
13349;SDS011;6744;53.190;6.576;2023-05-23T02:03:25;17.77;;;9.03;;
13349;SDS011;6744;53.190;6.576;2023-05-23T02:05:50;18.10;;;9.67;;
13349;SDS011;6744;53.190;6.576;2023-05-23T02:08:15;18.03;;;8.30;;
13349;SDS011;6744;53.190;6.576;2023-05-23T02:10:41;18.50;;;9.03;;
13349;SDS011;6744;53.190;6.576;2023-05-23T02:13:06;19.53;;;9.27;;
13349;SDS011;6744;53.190;6.576;2023-05-23T02:15:31;16.97;;;8.60;;
13349;SDS011;6744;53.190;6.576;2023-05-23T02:17:57;19.23;;;9.50;;
13349;SDS011;6744;53.190;6.576;2023-05-23T02:20:22;15.37;;;8.13;;
13349;SDS011;6744;53.190;6.576;2023-05-23T02:22:48;15.37;;;7.77;;
13349;SDS011;6744;53.190;6.576;2023-05-23T02:25:13;16.60;;;9.20;;
13349;SDS011;6744;53.190;6.576;2023-05-23T02:27:39;14.20;;;7.80;;
13349;SDS011;6744;53.190;6.576;2023-05-23T02:30:06;11.73;;;7.73;;
13349;SDS011;6744;53.190;6.576;2023-05-23T02:32:33;15.27;;;7.17;;
13349;SDS011;6744;53.190;6.576;2023-05-23T02:34:58;14.00;;;7.30;;
13349;SDS011;6744;53.190;6.576;2023-05-23T02:37:24;15.27;;;7.37;;
13349;SDS011;6744;53.190;6.576;2023-05-23T02:39:49;15.77;;;7.93;;
13349;SDS011;6744;53.190;6.576;2023-05-23T02:42:14;13.53;;;6.90;;
13349;SDS011;6744;53.190;6.576;2023-05-23T02:44:40;14.13;;;7.30;;
13349;SDS011;6744;53.190;6.576;2023-05-23T02:47:05;14.60;;;7.73;;
13349;SDS011;6744;53.190;6.576;2023-05-23T02:49:31;16.03;;;7.60;;
13349;SDS011;6744;53.190;6.576;2023-05-23T02:51:56;19.80;;;8.63;;
13349;SDS011;6744;53.190;6.576;2023-05-23T02:54:22;20.87;;;8.27;;
13349;SDS011;6744;53.190;6.576;2023-05-23T02:56:47;14.93;;;7.80;;
13349;SDS011;6744;53.190;6.576;2023-05-23T02:59:14;16.90;;;7.67;;
13349;SDS011;6744;53.190;6.576;2023-05-23T03:01:40;16.33;;;7.93;;
13349;SDS011;6744;53.190;6.576;2023-05-23T03:04:05;21.47;;;7.90;;
13349;SDS011;6744;53.190;6.576;2023-05-23T03:06:30;18.23;;;8.30;;
13349;SDS011;6744;53.190;6.576;2023-05-23T03:08:57;15.23;;;7.43;;
13349;SDS011;6744;53.190;6.576;2023-05-23T03:11:23;16.97;;;7.70;;
13349;SDS011;6744;53.190;6.576;2023-05-23T03:13:49;19.33;;;8.53;;
13349;SDS011;6744;53.190;6.576;2023-05-23T03:16:14;16.00;;;7.53;;
13349;SDS011;6744;53.190;6.576;2023-05-23T03:18:39;17.73;;;8.30;;
13349;SDS011;6744;53.190;6.576;2023-05-23T03:21:07;17.43;;;8.63;;
13349;SDS011;6744;53.190;6.576;2023-05-23T03:23:33;14.80;;;7.33;;
13349;SDS011;6744;53.190;6.576;2023-05-23T03:26:00;15.47;;;7.40;;
13349;SDS011;6744;53.190;6.576;2023-05-23T03:28:27;13.50;;;6.97;;
13349;SDS011;6744;53.190;6.576;2023-05-23T03:30:52;16.20;;;7.83;;
13349;SDS011;6744;53.190;6.576;2023-05-23T03:33:18;17.20;;;6.80;;
13349;SDS011;6744;53.190;6.576;2023-05-23T03:35:43;12.30;;;6.17;;
13349;SDS011;6744;53.190;6.576;2023-05-23T03:38:08;11.70;;;5.53;;
13349;SDS011;6744;53.190;6.576;2023-05-23T03:40:33;12.87;;;6.23;;
13349;SDS011;6744;53.190;6.576;2023-05-23T03:43:05;12.33;;;5.87;;
13349;SDS011;6744;53.190;6.576;2023-05-23T03:45:31;16.03;;;6.50;;
13349;SDS011;6744;53.190;6.576;2023-05-23T03:47:57;13.13;;;5.60;;
13349;SDS011;6744;53.190;6.576;2023-05-23T03:50:23;13.33;;;6.13;;
13349;SDS011;6744;53.190;6.576;2023-05-23T03:52:48;10.83;;;5.13;;
13349;SDS011;6744;53.190;6.576;2023-05-23T03:55:13;11.97;;;5.50;;
13349;SDS011;6744;53.190;6.576;2023-05-23T03:57:39;16.17;;;5.80;;
13349;SDS011;6744;53.190;6.576;2023-05-23T04:00:04;13.03;;;5.37;;
13349;SDS011;6744;53.190;6.576;2023-05-23T04:02:35;13.23;;;5.30;;
13349;SDS011;6744;53.190;6.576;2023-05-23T04:05:01;14.70;;;6.33;;
13349;SDS011;6744;53.190;6.576;2023-05-23T04:07:26;13.60;;;5.80;;
13349;SDS011;6744;53.190;6.576;2023-05-23T04:09:52;14.53;;;5.37;;
13349;SDS011;6744;53.190;6.576;2023-05-23T04:12:17;15.00;;;5.47;;
13349;SDS011;6744;53.190;6.576;2023-05-23T04:14:43;9.67;;;4.97;;
13349;SDS011;6744;53.190;6.576;2023-05-23T04:17:08;13.40;;;5.60;;
13349;SDS011;6744;53.190;6.576;2023-05-23T04:19:34;12.20;;;4.40;;
13349;SDS011;6744;53.190;6.576;2023-05-23T04:21:59;9.20;;;4.90;;
13349;SDS011;6744;53.190;6.576;2023-05-23T04:24:24;13.07;;;4.83;;
13349;SDS011;6744;53.190;6.576;2023-05-23T04:26:50;10.37;;;4.47;;
13349;SDS011;6744;53.190;6.576;2023-05-23T04:29:15;13.47;;;4.40;;
13349;SDS011;6744;53.190;6.576;2023-05-23T04:31:41;9.73;;;3.63;;
13349;SDS011;6744;53.190;6.576;2023-05-23T04:34:09;10.30;;;4.30;;
13349;SDS011;6744;53.190;6.576;2023-05-23T04:36:35;10.27;;;4.00;;
13349;SDS011;6744;53.190;6.576;2023-05-23T04:39:02;13.43;;;4.10;;
13349;SDS011;6744;53.190;6.576;2023-05-23T04:41:29;11.43;;;4.37;;
13349;SDS011;6744;53.190;6.576;2023-05-23T04:43:55;11.50;;;3.90;;
13349;SDS011;6744;53.190;6.576;2023-05-23T04:46:22;9.70;;;4.23;;
13349;SDS011;6744;53.190;6.576;2023-05-23T04:48:51;13.27;;;4.00;;
13349;SDS011;6744;53.190;6.576;2023-05-23T04:51:20;11.03;;;4.30;;
13349;SDS011;6744;53.190;6.576;2023-05-23T04:53:46;15.27;;;5.40;;
13349;SDS011;6744;53.190;6.576;2023-05-23T04:56:13;13.43;;;4.80;;
13349;SDS011;6744;53.190;6.576;2023-05-23T04:58:39;12.90;;;5.13;;
13349;SDS011;6744;53.190;6.576;2023-05-23T05:01:06;18.23;;;7.27;;
13349;SDS011;6744;53.190;6.576;2023-05-23T05:03:33;15.67;;;6.60;;
13349;SDS011;6744;53.190;6.576;2023-05-23T05:05:58;14.87;;;6.47;;
13349;SDS011;6744;53.190;6.576;2023-05-23T05:08:25;16.70;;;6.63;;
13349;SDS011;6744;53.190;6.576;2023-05-23T05:10:52;15.70;;;7.37;;
13349;SDS011;6744;53.190;6.576;2023-05-23T05:13:18;17.37;;;7.37;;
13349;SDS011;6744;53.190;6.576;2023-05-23T05:15:43;15.73;;;7.23;;
13349;SDS011;6744;53.190;6.576;2023-05-23T05:18:09;16.13;;;7.87;;
13349;SDS011;6744;53.190;6.576;2023-05-23T05:20:36;12.57;;;6.60;;
13349;SDS011;6744;53.190;6.576;2023-05-23T05:23:01;16.07;;;7.10;;
13349;SDS011;6744;53.190;6.576;2023-05-23T05:25:27;12.97;;;6.67;;
13349;SDS011;6744;53.190;6.576;2023-05-23T05:27:55;13.17;;;6.47;;
13349;SDS011;6744;53.190;6.576;2023-05-23T05:30:21;12.03;;;6.40;;
13349;SDS011;6744;53.190;6.576;2023-05-23T05:32:46;13.17;;;6.23;;
13349;SDS011;6744;53.190;6.576;2023-05-23T05:35:12;12.50;;;5.23;;
13349;SDS011;6744;53.190;6.576;2023-05-23T05:37:38;9.83;;;5.10;;
13349;SDS011;6744;53.190;6.576;2023-05-23T05:40:03;16.40;;;6.10;;
13349;SDS011;6744;53.190;6.576;2023-05-23T05:42:32;13.57;;;5.67;;
13349;SDS011;6744;53.190;6.576;2023-05-23T05:44:57;10.30;;;4.87;;
13349;SDS011;6744;53.190;6.576;2023-05-23T05:47:23;13.97;;;5.53;;
13349;SDS011;6744;53.190;6.576;2023-05-23T05:49:48;9.07;;;4.90;;
13349;SDS011;6744;53.190;6.576;2023-05-23T05:52:13;8.40;;;4.60;;
13349;SDS011;6744;53.190;6.576;2023-05-23T05:54:39;10.50;;;4.30;;
13349;SDS011;6744;53.190;6.576;2023-05-23T05:57:04;7.87;;;4.30;;
13349;SDS011;6744;53.190;6.576;2023-05-23T05:59:30;6.87;;;3.50;;
13349;SDS011;6744;53.190;6.576;2023-05-23T06:01:55;8.37;;;4.47;;
13349;SDS011;6744;53.190;6.576;2023-05-23T06:04:20;11.50;;;5.07;;
13349;SDS011;6744;53.190;6.576;2023-05-23T06:06:46;10.47;;;3.83;;
13349;SDS011;6744;53.190;6.576;2023-05-23T06:09:11;7.70;;;3.70;;
13349;SDS011;6744;53.190;6.576;2023-05-23T06:11:36;9.13;;;3.77;;
13349;SDS011;6744;53.190;6.576;2023-05-23T06:14:07;10.43;;;3.80;;
13349;SDS011;6744;53.190;6.576;2023-05-23T06:16:33;10.10;;;4.00;;
13349;SDS011;6744;53.190;6.576;2023-05-23T06:18:59;8.83;;;3.63;;
13349;SDS011;6744;53.190;6.576;2023-05-23T06:21:24;8.53;;;3.20;;
13349;SDS011;6744;53.190;6.576;2023-05-23T06:23:49;12.53;;;3.97;;
13349;SDS011;6744;53.190;6.576;2023-05-23T06:26:15;10.93;;;3.97;;
13349;SDS011;6744;53.190;6.576;2023-05-23T06:28:40;9.83;;;3.60;;
13349;SDS011;6744;53.190;6.576;2023-05-23T06:31:06;11.27;;;3.90;;
13349;SDS011;6744;53.190;6.576;2023-05-23T06:33:33;11.37;;;3.70;;
13349;SDS011;6744;53.190;6.576;2023-05-23T06:35:59;10.97;;;3.80;;
13349;SDS011;6744;53.190;6.576;2023-05-23T06:38:25;15.33;;;3.83;;
13349;SDS011;6744;53.190;6.576;2023-05-23T06:40:51;12.53;;;4.13;;
13349;SDS011;6744;53.190;6.576;2023-05-23T06:43:16;12.33;;;3.43;;
13349;SDS011;6744;53.190;6.576;2023-05-23T06:45:43;10.93;;;3.80;;
13349;SDS011;6744;53.190;6.576;2023-05-23T06:48:10;17.60;;;4.53;;
13349;SDS011;6744;53.190;6.576;2023-05-23T06:50:35;12.40;;;3.80;;
13349;SDS011;6744;53.190;6.576;2023-05-23T06:53:01;14.83;;;3.77;;
13349;SDS011;6744;53.190;6.576;2023-05-23T06:55:26;12.23;;;3.90;;
13349;SDS011;6744;53.190;6.576;2023-05-23T06:57:52;11.90;;;4.03;;
13349;SDS011;6744;53.190;6.576;2023-05-23T07:00:17;16.30;;;3.90;;
13349;SDS011;6744;53.190;6.576;2023-05-23T07:02:43;11.90;;;3.70;;
13349;SDS011;6744;53.190;6.576;2023-05-23T07:05:12;14.23;;;4.00;;
13349;SDS011;6744;53.190;6.576;2023-05-23T07:07:39;14.43;;;4.20;;
13349;SDS011;6744;53.190;6.576;2023-05-23T07:10:04;13.47;;;3.50;;
13349;SDS011;6744;53.190;6.576;2023-05-23T07:12:30;11.83;;;3.27;;
13349;SDS011;6744;53.190;6.576;2023-05-23T07:14:55;9.43;;;2.97;;
13349;SDS011;6744;53.190;6.576;2023-05-23T07:17:21;14.23;;;4.07;;
13349;SDS011;6744;53.190;6.576;2023-05-23T07:19:46;13.87;;;4.27;;
13349;SDS011;6744;53.190;6.576;2023-05-23T07:22:12;12.33;;;3.80;;
13349;SDS011;6744;53.190;6.576;2023-05-23T07:24:37;12.10;;;3.13;;
13349;SDS011;6744;53.190;6.576;2023-05-23T07:27:02;12.73;;;3.47;;
13349;SDS011;6744;53.190;6.576;2023-05-23T07:29:28;11.20;;;3.50;;
13349;SDS011;6744;53.190;6.576;2023-05-23T07:31:53;15.10;;;3.63;;
13349;SDS011;6744;53.190;6.576;2023-05-23T07:34:18;14.20;;;3.27;;
13349;SDS011;6744;53.190;6.576;2023-05-23T07:36:44;15.30;;;3.93;;
13349;SDS011;6744;53.190;6.576;2023-05-23T07:39:09;10.67;;;3.87;;
13349;SDS011;6744;53.190;6.576;2023-05-23T07:41:35;13.03;;;3.53;;
13349;SDS011;6744;53.190;6.576;2023-05-23T07:44:00;15.73;;;3.30;;
13349;SDS011;6744;53.190;6.576;2023-05-23T07:46:25;11.50;;;3.07;;
13349;SDS011;6744;53.190;6.576;2023-05-23T07:48:51;11.77;;;3.10;;
13349;SDS011;6744;53.190;6.576;2023-05-23T07:51:16;13.43;;;4.00;;
13349;SDS011;6744;53.190;6.576;2023-05-23T07:53:45;15.43;;;4.07;;
13349;SDS011;6744;53.190;6.576;2023-05-23T07:56:10;11.33;;;3.13;;
13349;SDS011;6744;53.190;6.576;2023-05-23T07:58:36;12.10;;;3.60;;
13349;SDS011;6744;53.190;6.576;2023-05-23T08:01:01;9.33;;;2.93;;
13349;SDS011;6744;53.190;6.576;2023-05-23T08:03:27;12.47;;;3.37;;
13349;SDS011;6744;53.190;6.576;2023-05-23T08:05:52;12.07;;;3.23;;
13349;SDS011;6744;53.190;6.576;2023-05-23T08:08:18;11.13;;;3.50;;
13349;SDS011;6744;53.190;6.576;2023-05-23T08:10:43;15.80;;;3.87;;
13349;SDS011;6744;53.190;6.576;2023-05-23T08:13:09;13.73;;;3.83;;
13349;SDS011;6744;53.190;6.576;2023-05-23T08:15:35;8.63;;;3.17;;
13349;SDS011;6744;53.190;6.576;2023-05-23T08:18:00;10.10;;;3.10;;
13349;SDS011;6744;53.190;6.576;2023-05-23T08:20:26;12.03;;;3.20;;
13349;SDS011;6744;53.190;6.576;2023-05-23T08:22:58;17.00;;;3.33;;
13349;SDS011;6744;53.190;6.576;2023-05-23T08:25:24;13.53;;;3.57;;
13349;SDS011;6744;53.190;6.576;2023-05-23T08:27:50;11.30;;;3.50;;
13349;SDS011;6744;53.190;6.576;2023-05-23T08:30:15;10.93;;;3.30;;
13349;SDS011;6744;53.190;6.576;2023-05-23T08:32:41;13.77;;;3.40;;
13349;SDS011;6744;53.190;6.576;2023-05-23T08:35:06;11.43;;;3.27;;
13349;SDS011;6744;53.190;6.576;2023-05-23T08:37:32;13.03;;;3.50;;
13349;SDS011;6744;53.190;6.576;2023-05-23T08:39:57;11.47;;;3.60;;
13349;SDS011;6744;53.190;6.576;2023-05-23T08:42:22;14.03;;;3.57;;
13349;SDS011;6744;53.190;6.576;2023-05-23T08:44:48;13.93;;;3.60;;
13349;SDS011;6744;53.190;6.576;2023-05-23T08:47:13;11.90;;;3.60;;
13349;SDS011;6744;53.190;6.576;2023-05-23T08:49:41;10.87;;;3.53;;
13349;SDS011;6744;53.190;6.576;2023-05-23T08:52:08;11.87;;;3.63;;
13349;SDS011;6744;53.190;6.576;2023-05-23T08:54:36;11.80;;;3.50;;
13349;SDS011;6744;53.190;6.576;2023-05-23T08:57:02;10.13;;;3.40;;
13349;SDS011;6744;53.190;6.576;2023-05-23T08:59:27;10.77;;;3.00;;
13349;SDS011;6744;53.190;6.576;2023-05-23T09:01:54;13.90;;;3.33;;
13349;SDS011;6744;53.190;6.576;2023-05-23T09:04:20;13.37;;;3.43;;
13349;SDS011;6744;53.190;6.576;2023-05-23T09:06:46;9.90;;;2.87;;
13349;SDS011;6744;53.190;6.576;2023-05-23T09:09:11;14.37;;;3.63;;
13349;SDS011;6744;53.190;6.576;2023-05-23T09:11:37;10.97;;;3.27;;
13349;SDS011;6744;53.190;6.576;2023-05-23T09:14:02;14.43;;;3.67;;
13349;SDS011;6744;53.190;6.576;2023-05-23T09:16:32;13.27;;;3.60;;
13349;SDS011;6744;53.190;6.576;2023-05-23T09:18:58;11.63;;;3.40;;
13349;SDS011;6744;53.190;6.576;2023-05-23T09:21:24;13.57;;;3.70;;
13349;SDS011;6744;53.190;6.576;2023-05-23T09:23:49;10.83;;;2.90;;
13349;SDS011;6744;53.190;6.576;2023-05-23T09:26:15;10.17;;;3.20;;
13349;SDS011;6744;53.190;6.576;2023-05-23T09:28:41;9.17;;;3.23;;
13349;SDS011;6744;53.190;6.576;2023-05-23T09:31:07;11.23;;;3.00;;
13349;SDS011;6744;53.190;6.576;2023-05-23T09:33:41;11.20;;;3.40;;
13349;SDS011;6744;53.190;6.576;2023-05-23T09:36:11;13.80;;;3.50;;
13349;SDS011;6744;53.190;6.576;2023-05-23T09:38:37;10.53;;;3.60;;
13349;SDS011;6744;53.190;6.576;2023-05-23T09:41:03;6.97;;;2.83;;
13349;SDS011;6744;53.190;6.576;2023-05-23T09:43:29;12.60;;;3.17;;
13349;SDS011;6744;53.190;6.576;2023-05-23T09:45:54;10.53;;;3.00;;
13349;SDS011;6744;53.190;6.576;2023-05-23T09:48:26;9.50;;;2.73;;
13349;SDS011;6744;53.190;6.576;2023-05-23T09:50:53;12.27;;;3.17;;
13349;SDS011;6744;53.190;6.576;2023-05-23T09:53:19;9.90;;;2.93;;
13349;SDS011;6744;53.190;6.576;2023-05-23T09:55:47;9.97;;;2.63;;
13349;SDS011;6744;53.190;6.576;2023-05-23T09:58:14;8.73;;;3.00;;
13349;SDS011;6744;53.190;6.576;2023-05-23T10:00:41;10.70;;;2.80;;
13349;SDS011;6744;53.190;6.576;2023-05-23T10:03:09;10.53;;;3.20;;
13349;SDS011;6744;53.190;6.576;2023-05-23T10:05:48;11.00;;;2.93;;
13349;SDS011;6744;53.190;6.576;2023-05-23T10:08:17;10.43;;;2.70;;
13349;SDS011;6744;53.190;6.576;2023-05-23T10:13:21;10.50;;;2.77;;
13349;SDS011;6744;53.190;6.576;2023-05-23T10:15:50;10.50;;;2.57;;
13349;SDS011;6744;53.190;6.576;2023-05-23T10:18:23;13.90;;;3.13;;
13349;SDS011;6744;53.190;6.576;2023-05-23T10:20:51;12.53;;;3.83;;
13349;SDS011;6744;53.190;6.576;2023-05-23T10:23:18;10.03;;;2.60;;
13349;SDS011;6744;53.190;6.576;2023-05-23T10:25:43;10.77;;;2.90;;
13349;SDS011;6744;53.190;6.576;2023-05-23T10:28:09;11.87;;;3.00;;
13349;SDS011;6744;53.190;6.576;2023-05-23T10:30:36;10.07;;;3.00;;
13349;SDS011;6744;53.190;6.576;2023-05-23T10:33:02;12.30;;;3.13;;
13349;SDS011;6744;53.190;6.576;2023-05-23T10:40:49;12.10;;;3.23;;
13349;SDS011;6744;53.190;6.576;2023-05-23T10:43:35;10.13;;;3.10;;
13349;SDS011;6744;53.190;6.576;2023-05-23T10:46:08;11.63;;;3.63;;
13349;SDS011;6744;53.190;6.576;2023-05-23T10:48:34;10.80;;;2.87;;
13349;SDS011;6744;53.190;6.576;2023-05-23T10:51:00;9.70;;;3.07;;
13349;SDS011;6744;53.190;6.576;2023-05-23T10:53:28;12.60;;;3.57;;
13349;SDS011;6744;53.190;6.576;2023-05-23T10:55:54;11.87;;;3.00;;
13349;SDS011;6744;53.190;6.576;2023-05-23T10:58:20;8.77;;;2.70;;
13349;SDS011;6744;53.190;6.576;2023-05-23T11:01:00;7.17;;;2.50;;
13349;SDS011;6744;53.190;6.576;2023-05-23T11:06:27;9.17;;;2.97;;
13349;SDS011;6744;53.190;6.576;2023-05-23T11:09:12;10.60;;;3.03;;
13349;SDS011;6744;53.190;6.576;2023-05-23T11:12:01;10.83;;;2.80;;
13349;SDS011;6744;53.190;6.576;2023-05-23T11:16:57;10.87;;;3.40;;
13349;SDS011;6744;53.190;6.576;2023-05-23T11:19:24;9.83;;;2.50;;
13349;SDS011;6744;53.190;6.576;2023-05-23T11:21:58;13.17;;;3.37;;
13349;SDS011;6744;53.190;6.576;2023-05-23T11:24:46;11.40;;;2.77;;
13349;SDS011;6744;53.190;6.576;2023-05-23T11:27:31;12.17;;;3.30;;
13349;SDS011;6744;53.190;6.576;2023-05-23T11:32:39;9.40;;;2.70;;
13349;SDS011;6744;53.190;6.576;2023-05-23T11:35:06;11.97;;;2.73;;
13349;SDS011;6744;53.190;6.576;2023-05-23T11:37:32;8.93;;;2.80;;
13349;SDS011;6744;53.190;6.576;2023-05-23T11:39:58;9.97;;;3.23;;
13349;SDS011;6744;53.190;6.576;2023-05-23T11:42:25;9.17;;;2.87;;
13349;SDS011;6744;53.190;6.576;2023-05-23T11:44:51;12.27;;;3.13;;
13349;SDS011;6744;53.190;6.576;2023-05-23T11:47:17;10.83;;;3.43;;
13349;SDS011;6744;53.190;6.576;2023-05-23T11:49:43;9.70;;;3.00;;
13349;SDS011;6744;53.190;6.576;2023-05-23T11:52:12;11.50;;;2.80;;
13349;SDS011;6744;53.190;6.576;2023-05-23T11:54:41;9.83;;;3.17;;
13349;SDS011;6744;53.190;6.576;2023-05-23T11:57:07;8.10;;;2.93;;
13349;SDS011;6744;53.190;6.576;2023-05-23T11:59:33;7.57;;;2.60;;
13349;SDS011;6744;53.190;6.576;2023-05-23T12:01:58;10.93;;;2.90;;
13349;SDS011;6744;53.190;6.576;2023-05-23T12:04:24;9.00;;;2.60;;
13349;SDS011;6744;53.190;6.576;2023-05-23T12:06:50;9.03;;;2.70;;
13349;SDS011;6744;53.190;6.576;2023-05-23T12:09:15;8.93;;;2.63;;
13349;SDS011;6744;53.190;6.576;2023-05-23T12:11:41;7.93;;;2.40;;
13349;SDS011;6744;53.190;6.576;2023-05-23T12:14:07;8.43;;;2.67;;
13349;SDS011;6744;53.190;6.576;2023-05-23T12:16:33;9.27;;;2.30;;
13349;SDS011;6744;53.190;6.576;2023-05-23T12:19:02;9.77;;;2.50;;
13349;SDS011;6744;53.190;6.576;2023-05-23T12:21:45;9.37;;;2.80;;
13349;SDS011;6744;53.190;6.576;2023-05-23T12:27:00;8.43;;;2.57;;
13349;SDS011;6744;53.190;6.576;2023-05-23T12:29:27;9.10;;;2.37;;
13349;SDS011;6744;53.190;6.576;2023-05-23T12:31:53;12.63;;;3.20;;
13349;SDS011;6744;53.190;6.576;2023-05-23T12:34:19;12.77;;;2.93;;
13349;SDS011;6744;53.190;6.576;2023-05-23T12:36:45;10.27;;;3.40;;
13349;SDS011;6744;53.190;6.576;2023-05-23T12:39:13;7.87;;;2.53;;
13349;SDS011;6744;53.190;6.576;2023-05-23T12:41:40;9.97;;;3.03;;
13349;SDS011;6744;53.190;6.576;2023-05-23T12:44:06;11.90;;;3.00;;
13349;SDS011;6744;53.190;6.576;2023-05-23T12:46:31;9.57;;;2.73;;
13349;SDS011;6744;53.190;6.576;2023-05-23T12:48:57;8.50;;;2.50;;
13349;SDS011;6744;53.190;6.576;2023-05-23T12:51:22;7.03;;;2.13;;
13349;SDS011;6744;53.190;6.576;2023-05-23T12:53:47;6.87;;;1.70;;
13349;SDS011;6744;53.190;6.576;2023-05-23T12:56:13;10.00;;;2.77;;
13349;SDS011;6744;53.190;6.576;2023-05-23T12:58:38;10.57;;;2.60;;
13349;SDS011;6744;53.190;6.576;2023-05-23T13:01:03;7.87;;;2.43;;
13349;SDS011;6744;53.190;6.576;2023-05-23T13:03:29;11.83;;;2.87;;
13349;SDS011;6744;53.190;6.576;2023-05-23T13:05:58;9.07;;;2.63;;
13349;SDS011;6744;53.190;6.576;2023-05-23T13:08:24;8.00;;;2.60;;
13349;SDS011;6744;53.190;6.576;2023-05-23T13:10:50;9.57;;;2.93;;
13349;SDS011;6744;53.190;6.576;2023-05-23T13:13:17;11.20;;;2.70;;
13349;SDS011;6744;53.190;6.576;2023-05-23T13:15:43;10.60;;;2.47;;
13349;SDS011;6744;53.190;6.576;2023-05-23T13:18:09;6.50;;;1.80;;
13349;SDS011;6744;53.190;6.576;2023-05-23T13:20:34;8.43;;;2.60;;
13349;SDS011;6744;53.190;6.576;2023-05-23T13:22:59;9.23;;;2.80;;
13349;SDS011;6744;53.190;6.576;2023-05-23T13:25:25;7.03;;;2.40;;
13349;SDS011;6744;53.190;6.576;2023-05-23T13:27:51;11.03;;;2.63;;
13349;SDS011;6744;53.190;6.576;2023-05-23T13:30:17;7.33;;;2.13;;
13349;SDS011;6744;53.190;6.576;2023-05-23T13:32:44;9.77;;;2.10;;
13349;SDS011;6744;53.190;6.576;2023-05-23T13:35:09;6.27;;;2.23;;
13349;SDS011;6744;53.190;6.576;2023-05-23T13:37:35;8.63;;;2.60;;
13349;SDS011;6744;53.190;6.576;2023-05-23T13:40:01;9.80;;;2.70;;
13349;SDS011;6744;53.190;6.576;2023-05-23T13:42:27;8.47;;;2.53;;
13349;SDS011;6744;53.190;6.576;2023-05-23T13:44:53;8.30;;;2.10;;
13349;SDS011;6744;53.190;6.576;2023-05-23T13:47:19;11.63;;;2.63;;
13349;SDS011;6744;53.190;6.576;2023-05-23T13:49:44;7.67;;;2.00;;
13349;SDS011;6744;53.190;6.576;2023-05-23T13:52:10;9.97;;;2.67;;
13349;SDS011;6744;53.190;6.576;2023-05-23T13:54:36;7.90;;;2.23;;
13349;SDS011;6744;53.190;6.576;2023-05-23T13:57:01;8.93;;;2.70;;
13349;SDS011;6744;53.190;6.576;2023-05-23T13:59:26;8.47;;;2.30;;
13349;SDS011;6744;53.190;6.576;2023-05-23T14:01:52;9.27;;;2.50;;
13349;SDS011;6744;53.190;6.576;2023-05-23T14:04:17;8.17;;;2.20;;
13349;SDS011;6744;53.190;6.576;2023-05-23T14:06:43;8.47;;;2.47;;
13349;SDS011;6744;53.190;6.576;2023-05-23T14:09:08;6.80;;;2.17;;
13349;SDS011;6744;53.190;6.576;2023-05-23T14:11:34;5.50;;;2.07;;
13349;SDS011;6744;53.190;6.576;2023-05-23T14:13:59;9.70;;;2.60;;
13349;SDS011;6744;53.190;6.576;2023-05-23T14:16:24;7.03;;;2.23;;
13349;SDS011;6744;53.190;6.576;2023-05-23T14:18:50;8.73;;;2.50;;
13349;SDS011;6744;53.190;6.576;2023-05-23T14:21:15;8.77;;;2.80;;
13349;SDS011;6744;53.190;6.576;2023-05-23T14:23:40;13.20;;;2.50;;
13349;SDS011;6744;53.190;6.576;2023-05-23T14:26:06;8.70;;;3.00;;
13349;SDS011;6744;53.190;6.576;2023-05-23T14:28:31;10.80;;;2.43;;
13349;SDS011;6744;53.190;6.576;2023-05-23T14:30:57;9.73;;;2.73;;
13349;SDS011;6744;53.190;6.576;2023-05-23T14:33:23;8.57;;;2.53;;
13349;SDS011;6744;53.190;6.576;2023-05-23T14:35:49;9.63;;;2.70;;
13349;SDS011;6744;53.190;6.576;2023-05-23T14:38:15;8.63;;;2.30;;
13349;SDS011;6744;53.190;6.576;2023-05-23T14:40:40;10.80;;;2.40;;
13349;SDS011;6744;53.190;6.576;2023-05-23T14:43:05;8.00;;;2.47;;
13349;SDS011;6744;53.190;6.576;2023-05-23T14:45:31;8.83;;;2.47;;
13349;SDS011;6744;53.190;6.576;2023-05-23T14:47:57;8.00;;;2.57;;
13349;SDS011;6744;53.190;6.576;2023-05-23T14:50:22;8.63;;;2.60;;
13349;SDS011;6744;53.190;6.576;2023-05-23T14:52:47;10.43;;;2.60;;
13349;SDS011;6744;53.190;6.576;2023-05-23T14:55:13;7.80;;;2.30;;
13349;SDS011;6744;53.190;6.576;2023-05-23T14:57:38;8.77;;;2.37;;
13349;SDS011;6744;53.190;6.576;2023-05-23T15:00:04;6.57;;;2.00;;
13349;SDS011;6744;53.190;6.576;2023-05-23T15:02:30;7.90;;;2.27;;
13349;SDS011;6744;53.190;6.576;2023-05-23T15:04:56;10.63;;;2.70;;
13349;SDS011;6744;53.190;6.576;2023-05-23T15:07:21;8.07;;;2.40;;
13349;SDS011;6744;53.190;6.576;2023-05-23T15:09:47;6.50;;;1.87;;
13349;SDS011;6744;53.190;6.576;2023-05-23T15:12:12;8.33;;;2.53;;
13349;SDS011;6744;53.190;6.576;2023-05-23T15:14:39;10.17;;;2.30;;
13349;SDS011;6744;53.190;6.576;2023-05-23T15:17:05;5.70;;;2.13;;